createdAt,value
2023-01-29T00:02:01.992Z,76.11
2023-01-29T00:04:29.929Z,75.48
2023-01-29T00:06:59.403Z,75.79
2023-01-29T00:09:27.552Z,75.60
2023-01-29T00:11:55.486Z,76.11
2023-01-29T00:14:23.528Z,75.67
2023-01-29T00:16:51.417Z,75.77
2023-01-29T00:19:19.629Z,75.58
2023-01-29T00:21:47.691Z,75.28
2023-01-29T00:24:17.072Z,76.01
2023-01-29T00:26:45.369Z,75.91
2023-01-29T00:29:13.400Z,75.00
2023-01-29T00:31:41.429Z,74.57
2023-01-29T00:34:09.455Z,74.40
2023-01-29T00:36:37.371Z,74.92
2023-01-29T00:39:10.915Z,75.23
2023-01-29T00:41:57.710Z,75.50
2023-01-29T00:44:43.142Z,75.19
2023-01-29T00:47:30.829Z,74.87
2023-01-29T00:49:59.084Z,75.38
2023-01-29T00:52:27.573Z,75.89
2023-01-29T00:54:57.027Z,75.98
2023-01-29T00:57:28.127Z,76.12
2023-01-29T00:59:56.236Z,75.71
2023-01-29T01:02:42.110Z,75.45
2023-01-29T01:05:17.829Z,75.35
2023-01-29T01:07:46.315Z,75.63
2023-01-29T01:10:21.906Z,75.68
2023-01-29T01:12:55.291Z,75.09
2023-01-29T01:15:24.536Z,75.85
2023-01-29T01:17:56.593Z,75.00
2023-01-29T01:20:25.133Z,75.47
2023-01-29T01:22:54.684Z,75.59
2023-01-29T01:25:22.746Z,75.88
2023-01-29T01:27:54.027Z,76.01
2023-01-29T01:30:22.391Z,76.39
2023-01-29T01:32:50.581Z,76.45
2023-01-29T01:35:18.716Z,75.69
2023-01-29T01:37:46.640Z,75.94
2023-01-29T01:40:18.299Z,76.49
2023-01-29T01:42:49.679Z,76.68
2023-01-29T01:45:30.242Z,76.79
2023-01-29T01:48:03.729Z,77.29
2023-01-29T01:50:36.372Z,77.61
2023-01-29T01:53:09.182Z,77.20
2023-01-29T01:55:43.130Z,76.59
2023-01-29T01:58:17.375Z,76.79
2023-01-29T02:00:46.748Z,76.99
2023-01-29T02:03:32.539Z,76.53
2023-01-29T02:06:19.152Z,76.86
2023-01-29T02:09:13.121Z,77.29
2023-01-29T02:11:41.468Z,77.37
2023-01-29T02:14:09.935Z,77.89
2023-01-29T02:16:39.357Z,77.74
2023-01-29T02:19:17.592Z,77.60
2023-01-29T02:22:07.004Z,77.87
2023-01-29T02:25:24.137Z,77.37
2023-01-29T02:28:22.716Z,77.69
2023-01-29T02:30:59.036Z,78.04
2023-01-29T02:33:34.624Z,77.85
2023-01-29T02:36:19.605Z,77.35
2023-01-29T02:38:55.117Z,77.52
2023-01-29T02:41:29.983Z,77.11
2023-01-29T02:44:07.523Z,77.60
2023-01-29T02:46:40.334Z,77.94
2023-01-29T02:49:16.892Z,77.55
2023-01-29T02:51:50.361Z,78.29
2023-01-29T02:54:23.035Z,78.86
2023-01-29T02:56:57.222Z,78.79
2023-01-29T02:59:31.076Z,78.41
2023-01-29T03:02:03.968Z,79.45
2023-01-29T03:04:38.574Z,79.80
2023-01-29T03:07:11.856Z,79.99
2023-01-29T03:09:48.630Z,80.66
2023-01-29T03:12:34.126Z,80.35
2023-01-29T03:15:14.335Z,80.62
2023-01-29T03:17:48.410Z,80.02
2023-01-29T03:20:19.815Z,80.66
2023-01-29T03:23:03.004Z,81.63
2023-01-29T03:25:50.535Z,80.95
2023-01-29T03:28:38.825Z,80.79
2023-01-29T03:31:28.826Z,80.39
2023-01-29T03:34:04.353Z,80.22
2023-01-29T03:36:39.919Z,80.38
2023-01-29T03:39:09.815Z,80.37
2023-01-29T03:41:42.890Z,79.92
2023-01-29T03:44:17.032Z,79.66
2023-01-29T03:46:54.746Z,79.56
2023-01-29T03:49:31.443Z,79.15
2023-01-29T03:52:04.842Z,79.20
2023-01-29T03:54:43.569Z,79.50
2023-01-29T03:57:17.029Z,79.24
2023-01-29T03:59:54.882Z,80.30
2023-01-29T04:02:28.790Z,79.72
2023-01-29T04:05:00.456Z,79.87
2023-01-29T04:07:33.541Z,79.46
2023-01-29T04:10:06.400Z,79.83
2023-01-29T04:12:39.949Z,80.35
2023-01-29T04:15:12.575Z,80.36
2023-01-29T04:17:44.513Z,81.67
2023-01-29T04:20:13.684Z,82.39
2023-01-29T04:22:46.101Z,83.39
2023-01-29T04:25:17.073Z,83.59
2023-01-29T04:27:53.735Z,83.45
2023-01-29T04:30:30.552Z,83.77
2023-01-29T04:33:07.418Z,84.85
2023-01-29T04:35:48.916Z,84.97
2023-01-29T04:38:29.444Z,85.33
2023-01-29T04:41:06.507Z,85.89
2023-01-29T04:43:43.494Z,86.08
2023-01-29T04:46:17.545Z,86.22
2023-01-29T04:48:59.047Z,86.67
2023-01-29T04:51:37.329Z,87.38
2023-01-29T04:54:12.921Z,87.93
2023-01-29T04:56:49.774Z,88.85
2023-01-29T04:59:22.357Z,89.39
2023-01-29T05:01:50.761Z,90.19
2023-01-29T05:04:22.471Z,89.63
2023-01-29T05:06:51.638Z,89.78
2023-01-29T05:09:21.016Z,90.35
2023-01-29T05:11:50.406Z,90.51
2023-01-29T05:14:20.977Z,90.29
2023-01-29T05:16:52.879Z,89.97
2023-01-29T05:19:22.177Z,90.18
2023-01-29T05:21:51.784Z,90.20
2023-01-29T05:24:22.136Z,90.05
2023-01-29T05:27:09.751Z,89.79
2023-01-29T05:29:37.921Z,90.41
2023-01-29T05:32:06.064Z,90.51
2023-01-29T05:34:35.578Z,90.34
2023-01-29T05:37:03.551Z,90.49
2023-01-29T05:39:31.568Z,90.12
2023-01-29T05:42:00.457Z,89.62
2023-01-29T05:44:28.447Z,89.49
2023-01-29T05:46:56.463Z,89.53
2023-01-29T05:49:24.509Z,90.02
2023-01-29T05:51:53.816Z,88.96
2023-01-29T05:54:21.745Z,88.75
2023-01-29T05:56:49.676Z,88.57
2023-01-29T05:59:18.044Z,87.62
2023-01-29T06:01:46.139Z,88.04
2023-01-29T06:04:14.087Z,87.91
2023-01-29T06:06:42.057Z,87.63
2023-01-29T06:09:13.068Z,87.20
2023-01-29T06:11:41.193Z,87.61
2023-01-29T06:14:09.172Z,87.99
2023-01-29T06:16:37.124Z,87.25
2023-01-29T06:19:05.486Z,86.92
2023-01-29T06:21:33.429Z,86.66
2023-01-29T06:24:01.401Z,86.49
2023-01-29T06:26:30.761Z,86.76
2023-01-29T06:28:58.689Z,86.59
2023-01-29T06:31:38.184Z,87.19
2023-01-29T06:34:07.628Z,85.76
2023-01-29T06:36:35.723Z,86.02
2023-01-29T06:39:04.158Z,85.71
2023-01-29T06:41:33.605Z,84.72
2023-01-29T06:44:01.735Z,85.56
2023-01-29T06:46:29.725Z,84.95
2023-01-29T06:49:00.674Z,84.65
2023-01-29T06:51:28.710Z,84.19
2023-01-29T06:53:56.690Z,83.00
2023-01-29T06:56:25.329Z,81.76
2023-01-29T06:58:54.754Z,81.44
2023-01-29T07:01:35.162Z,81.68
2023-01-29T07:04:04.148Z,81.66
2023-01-29T07:06:35.078Z,81.13
2023-01-29T07:09:03.142Z,80.37
2023-01-29T07:11:31.189Z,80.48
2023-01-29T07:14:00.521Z,79.98
2023-01-29T07:16:28.556Z,79.66
2023-01-29T07:18:56.754Z,79.78
2023-01-29T07:21:24.810Z,79.32
2023-01-29T07:23:52.719Z,80.63
2023-01-29T07:26:20.657Z,80.53
2023-01-29T07:28:48.605Z,80.70
2023-01-29T07:31:18.056Z,80.48
2023-01-29T07:33:46.331Z,80.26
2023-01-29T07:36:15.102Z,79.64
2023-01-29T07:38:43.149Z,79.06
2023-01-29T07:41:12.946Z,79.55
2023-01-29T07:43:40.914Z,78.82
2023-01-29T07:46:09.607Z,78.48
2023-01-29T07:48:39.107Z,78.27
2023-01-29T07:51:07.458Z,78.00
2023-01-29T07:53:35.902Z,77.45
2023-01-29T07:56:04.473Z,77.74
2023-01-29T07:58:33.484Z,76.52
2023-01-29T08:01:06.968Z,77.97
2023-01-29T08:03:35.861Z,77.58
2023-01-29T08:06:05.924Z,78.60
2023-01-29T08:08:33.943Z,78.11
2023-01-29T08:11:02.825Z,77.82
2023-01-29T08:13:30.917Z,79.49
2023-01-29T08:16:00.978Z,79.21
2023-01-29T08:18:29.241Z,77.66
2023-01-29T08:21:01.243Z,78.25
2023-01-29T08:23:31.070Z,77.65
2023-01-29T08:25:59.071Z,78.27
2023-01-29T08:28:27.083Z,77.90
2023-01-29T08:30:55.283Z,78.29
2023-01-29T08:33:38.613Z,75.48
2023-01-29T08:36:08.181Z,76.18
2023-01-29T08:38:37.526Z,77.59
2023-01-29T08:41:06.156Z,78.08
2023-01-29T08:43:35.307Z,77.98
2023-01-29T08:46:04.911Z,78.82
2023-01-29T08:48:33.362Z,78.45
2023-01-29T08:51:02.418Z,78.22
2023-01-29T08:53:30.328Z,78.99
2023-01-29T08:55:59.697Z,77.80
2023-01-29T08:58:27.675Z,78.35
2023-01-29T09:00:55.593Z,77.88
2023-01-29T09:03:23.576Z,77.37
2023-01-29T09:05:51.506Z,77.06
2023-01-29T09:08:19.420Z,76.63
2023-01-29T09:10:47.318Z,76.62
2023-01-29T09:13:16.720Z,75.66
2023-01-29T09:15:44.717Z,75.08
2023-01-29T09:18:12.787Z,74.64
2023-01-29T09:20:40.737Z,76.34
2023-01-29T09:23:10.059Z,77.44
2023-01-29T09:25:38.622Z,76.62
2023-01-29T09:28:07.360Z,76.77
2023-01-29T09:30:38.298Z,77.20
2023-01-29T09:33:06.628Z,77.67
2023-01-29T09:35:35.525Z,78.05
2023-01-29T09:38:03.450Z,78.15
2023-01-29T09:40:36.689Z,77.63
2023-01-29T09:43:08.370Z,78.04
2023-01-29T09:45:39.863Z,78.47
2023-01-29T09:48:13.762Z,77.07
2023-01-29T09:50:45.255Z,78.35
2023-01-29T09:53:19.554Z,77.97
2023-01-29T09:55:52.571Z,77.29
2023-01-29T09:58:28.563Z,77.70
2023-01-29T10:01:08.597Z,77.25
2023-01-29T10:03:51.809Z,76.33
2023-01-29T10:06:32.100Z,76.19
2023-01-29T10:09:36.720Z,75.99
2023-01-29T10:12:21.183Z,77.57
2023-01-29T10:15:00.624Z,76.74
2023-01-29T10:17:50.314Z,77.45
2023-01-29T10:20:40.526Z,76.67
2023-01-29T10:23:19.918Z,76.35
2023-01-29T10:25:49.073Z,75.22
2023-01-29T10:28:20.295Z,74.30
2023-01-29T10:30:51.251Z,74.16
2023-01-29T10:33:29.543Z,74.47
2023-01-29T10:36:04.005Z,74.19
2023-01-29T10:38:44.113Z,73.36
2023-01-29T10:41:49.805Z,73.71
2023-01-29T10:44:28.455Z,74.12
2023-01-29T10:47:29.251Z,74.26
2023-01-29T10:50:22.981Z,72.34
2023-01-29T10:53:05.201Z,71.99
2023-01-29T10:55:47.827Z,71.33
2023-01-29T10:58:23.872Z,70.88
2023-01-29T11:00:52.682Z,69.96
2023-01-29T11:03:28.240Z,70.27
2023-01-29T11:06:05.337Z,70.06
2023-01-29T11:08:39.107Z,69.82
2023-01-29T11:11:10.771Z,71.37
2023-01-29T11:13:43.878Z,71.28
2023-01-29T11:16:12.248Z,69.47
2023-01-29T11:18:55.524Z,70.43
2023-01-29T11:21:25.811Z,70.64
2023-01-29T11:24:07.652Z,70.25
2023-01-29T11:26:39.242Z,69.38
2023-01-29T11:29:35.619Z,69.60
2023-01-29T11:32:07.143Z,70.24
2023-01-29T11:34:35.553Z,72.16
2023-01-29T11:37:13.019Z,71.10
2023-01-29T11:39:45.541Z,70.16
2023-01-29T11:42:21.748Z,70.66
2023-01-29T11:44:50.144Z,69.88
2023-01-29T11:47:24.086Z,67.96
2023-01-29T11:49:54.762Z,66.30
2023-01-29T11:52:26.400Z,67.71
2023-01-29T11:54:58.397Z,65.79
2023-01-29T11:57:31.103Z,64.81
2023-01-29T12:00:03.392Z,64.29
2023-01-29T12:02:37.051Z,63.84
2023-01-29T12:05:15.127Z,64.72
2023-01-29T12:07:47.383Z,64.77
2023-01-29T12:10:35.462Z,65.67
2023-01-29T12:13:07.798Z,65.68
2023-01-29T12:15:35.810Z,64.99
2023-01-29T12:18:13.377Z,65.19
2023-01-29T12:20:46.199Z,64.79
2023-01-29T12:23:29.306Z,65.18
2023-01-29T12:26:03.895Z,64.84
2023-01-29T12:28:49.522Z,64.58
2023-01-29T12:31:29.905Z,64.59
2023-01-29T12:34:05.697Z,64.76
2023-01-29T12:36:39.516Z,65.29
2023-01-29T12:39:11.452Z,64.85
2023-01-29T12:41:46.205Z,65.01
2023-01-29T12:44:20.418Z,64.57
2023-01-29T12:46:53.588Z,64.84
2023-01-29T12:49:25.047Z,65.28
2023-01-29T12:51:59.146Z,65.76
2023-01-29T12:54:36.231Z,65.73
2023-01-29T12:57:09.900Z,65.84
2023-01-29T12:59:44.561Z,65.27
2023-01-29T13:02:24.610Z,64.81
2023-01-29T13:05:00.494Z,64.03
2023-01-29T13:07:33.455Z,64.16
2023-01-29T13:10:09.326Z,63.77
2023-01-29T13:12:40.927Z,64.18
2023-01-29T13:15:23.276Z,63.95
2023-01-29T13:17:55.575Z,64.66
2023-01-29T13:20:29.980Z,64.53
2023-01-29T13:23:00.492Z,63.67
2023-01-29T13:25:29.936Z,63.25
2023-01-29T13:27:57.890Z,63.91
2023-01-29T13:30:28.216Z,64.15
2023-01-29T13:33:09.299Z,63.79
2023-01-29T13:35:40.398Z,64.16
2023-01-29T13:38:24.986Z,63.29
2023-01-29T13:40:58.291Z,62.90
2023-01-29T13:43:26.666Z,62.32
2023-01-29T13:45:56.104Z,62.11
2023-01-29T13:48:28.303Z,61.80
2023-01-29T13:50:58.515Z,61.19
2023-01-29T13:53:29.694Z,61.17
2023-01-29T13:56:42.052Z,61.77
2023-01-29T13:59:23.544Z,61.88
2023-01-29T14:02:22.539Z,61.85
2023-01-29T14:04:50.547Z,61.10
2023-01-29T14:07:51.723Z,61.22
2023-01-29T14:10:23.018Z,61.67
2023-01-29T14:12:56.709Z,62.71
2023-01-29T14:15:28.008Z,63.08
2023-01-29T14:18:07.866Z,62.85
2023-01-29T14:20:46.093Z,63.57
2023-01-29T14:23:25.146Z,64.20
2023-01-29T14:25:53.252Z,64.21
2023-01-29T14:28:27.216Z,64.03
2023-01-29T14:30:56.601Z,63.44
2023-01-29T14:33:33.017Z,63.18
2023-01-29T14:36:05.284Z,63.37
2023-01-29T14:38:34.415Z,63.43
2023-01-29T14:41:16.210Z,63.57
2023-01-29T14:43:45.536Z,63.50
2023-01-29T14:46:44.501Z,62.81
2023-01-29T14:49:12.594Z,62.97
2023-01-29T14:51:45.136Z,64.10
2023-01-29T14:54:24.299Z,64.50
2023-01-29T14:56:59.538Z,64.87
2023-01-29T14:59:35.122Z,65.15
2023-01-29T15:02:12.918Z,66.26
2023-01-29T15:04:47.194Z,66.73
2023-01-29T15:07:29.271Z,67.57
2023-01-29T15:10:21.420Z,67.63
2023-01-29T15:12:53.937Z,67.33
2023-01-29T15:15:33.774Z,68.08
2023-01-29T15:18:06.935Z,68.67
2023-01-29T15:20:37.382Z,68.11
2023-01-29T15:23:23.679Z,68.55
2023-01-29T15:25:54.257Z,68.53
2023-01-29T15:28:22.871Z,69.75
2023-01-29T15:30:56.993Z,69.01
2023-01-29T15:33:25.251Z,69.32
2023-01-29T15:36:06.752Z,70.40
2023-01-29T15:38:36.207Z,70.73
2023-01-29T15:41:17.296Z,70.70
2023-01-29T15:43:47.318Z,70.39
2023-01-29T15:46:23.387Z,70.81
2023-01-29T15:48:52.188Z,71.71
2023-01-29T15:51:23.525Z,72.76
2023-01-29T15:53:55.269Z,73.48
2023-01-29T15:56:27.914Z,72.89
2023-01-29T15:58:59.287Z,73.48
2023-01-29T16:01:31.016Z,73.47
2023-01-29T16:04:02.426Z,73.68
2023-01-29T16:06:35.586Z,73.43
2023-01-29T16:09:05.916Z,72.16
2023-01-29T16:11:35.260Z,72.10
2023-01-29T16:14:04.858Z,73.11
2023-01-29T16:16:34.910Z,74.00
2023-01-29T16:19:14.630Z,73.37
2023-01-29T16:21:46.069Z,73.41
2023-01-29T16:24:22.421Z,72.86
2023-01-29T16:26:52.717Z,73.60
2023-01-29T16:29:23.629Z,73.69
2023-01-29T16:32:00.714Z,74.04
2023-01-29T16:34:32.731Z,74.57
2023-01-29T16:37:03.027Z,73.94
2023-01-29T16:39:35.487Z,74.05
2023-01-29T16:42:25.228Z,72.98
2023-01-29T16:44:58.553Z,72.40
2023-01-29T16:47:39.040Z,72.41
2023-01-29T16:50:27.171Z,73.17
2023-01-29T16:53:01.618Z,74.27
2023-01-29T16:55:36.849Z,73.11
2023-01-29T16:58:12.358Z,73.03
2023-01-29T17:00:45.777Z,73.66
2023-01-29T17:03:17.137Z,74.31
2023-01-29T17:05:46.654Z,73.57
2023-01-29T17:08:23.847Z,73.10
2023-01-29T17:10:52.379Z,73.62
2023-01-29T17:13:28.497Z,73.88
2023-01-29T17:16:03.843Z,73.85
2023-01-29T17:18:33.438Z,73.90
2023-01-29T17:21:01.382Z,73.99
2023-01-29T17:23:29.508Z,73.92
2023-01-29T17:25:57.545Z,74.15
2023-01-29T17:28:26.258Z,74.05
2023-01-29T17:31:05.871Z,73.78
2023-01-29T17:33:37.307Z,74.81
2023-01-29T17:36:05.863Z,74.17
2023-01-29T17:38:35.557Z,73.71
2023-01-29T17:41:07.792Z,73.59
2023-01-29T17:43:36.116Z,73.84
2023-01-29T17:46:04.458Z,73.73
2023-01-29T17:48:32.698Z,74.53
2023-01-29T17:51:05.248Z,74.29
2023-01-29T17:53:44.830Z,74.36
2023-01-29T17:56:18.499Z,73.35
2023-01-29T17:58:46.666Z,72.06
2023-01-29T18:01:14.829Z,73.20
2023-01-29T18:03:42.780Z,72.66
2023-01-29T18:06:16.319Z,72.83
2023-01-29T18:08:44.346Z,72.70
2023-01-29T18:11:13.785Z,72.51
2023-01-29T18:13:42.362Z,72.90
2023-01-29T18:16:11.283Z,73.08
2023-01-29T18:18:40.381Z,72.64
2023-01-29T18:21:08.976Z,72.00
2023-01-29T18:23:38.923Z,72.20
2023-01-29T18:26:08.215Z,71.99
2023-01-29T18:28:36.245Z,71.90
2023-01-29T18:31:05.427Z,71.66
2023-01-29T18:33:34.380Z,71.93
2023-01-29T18:36:04.986Z,72.43
2023-01-29T18:38:33.549Z,71.62
2023-01-29T18:41:11.757Z,72.20
2023-01-29T18:43:40.714Z,72.41
2023-01-29T18:46:09.348Z,72.58
2023-01-29T18:48:41.677Z,72.57
2023-01-29T18:51:10.780Z,73.02
2023-01-29T18:53:38.842Z,73.26
2023-01-29T18:56:10.657Z,73.00
2023-01-29T18:58:39.175Z,73.84
2023-01-29T19:01:11.983Z,74.33
2023-01-29T19:03:40.707Z,73.90
2023-01-29T19:06:10.780Z,73.64
2023-01-29T19:08:39.405Z,74.51
2023-01-29T19:11:09.763Z,75.41
2023-01-29T19:13:38.400Z,75.38
2023-01-29T19:16:09.193Z,75.16
2023-01-29T19:18:37.726Z,75.38
2023-01-29T19:21:08.668Z,75.60
2023-01-29T19:23:36.711Z,75.38
2023-01-29T19:26:05.254Z,74.97
2023-01-29T19:28:34.963Z,75.49
2023-01-29T19:31:03.435Z,75.36
2023-01-29T19:33:31.467Z,75.31
2023-01-29T19:36:00.314Z,74.48
2023-01-29T19:38:33.587Z,74.79
2023-01-29T19:41:02.132Z,74.82
2023-01-29T19:43:35.006Z,74.52
2023-01-29T19:46:03.857Z,74.11
2023-01-29T19:48:31.942Z,74.73
2023-01-29T19:51:02.301Z,74.84
2023-01-29T19:53:33.338Z,74.58
2023-01-29T19:56:03.515Z,74.89
2023-01-29T19:58:34.264Z,74.09
2023-01-29T20:01:06.437Z,74.85
2023-01-29T20:03:34.540Z,75.13
2023-01-29T20:06:04.103Z,74.43
2023-01-29T20:08:33.066Z,74.40
2023-01-29T20:11:00.999Z,74.42
2023-01-29T20:13:31.279Z,74.06
2023-01-29T20:16:02.916Z,74.81
2023-01-29T20:18:32.822Z,73.94
2023-01-29T20:21:01.553Z,74.41
2023-01-29T20:23:37.752Z,73.95
2023-01-29T20:26:07.052Z,73.98
2023-01-29T20:28:35.840Z,73.79
2023-01-29T20:31:04.404Z,74.19
2023-01-29T20:33:34.756Z,74.23
2023-01-29T20:36:05.956Z,74.17
2023-01-29T20:38:34.792Z,74.15
2023-01-29T20:41:06.952Z,74.26
2023-01-29T20:43:35.109Z,75.00
2023-01-29T20:46:03.976Z,75.60
2023-01-29T20:48:34.289Z,75.45
2023-01-29T20:51:09.867Z,76.20
2023-01-29T20:53:38.513Z,76.06
2023-01-29T20:56:07.656Z,75.75
2023-01-29T20:58:35.753Z,76.18
2023-01-29T21:01:11.592Z,76.42
2023-01-29T21:03:41.306Z,75.34
2023-01-29T21:06:10.474Z,75.62
2023-01-29T21:08:38.957Z,76.60
2023-01-29T21:11:08.668Z,76.35
2023-01-29T21:13:37.152Z,76.61
2023-01-29T21:16:05.951Z,76.66
2023-01-29T21:18:33.884Z,77.50
2023-01-29T21:21:03.291Z,76.95
2023-01-29T21:23:31.678Z,77.44
2023-01-29T21:26:03.239Z,77.50
2023-01-29T21:28:31.228Z,77.52
2023-01-29T21:31:06.764Z,77.42
2023-01-29T21:33:35.277Z,76.47
2023-01-29T21:36:05.136Z,76.58
2023-01-29T21:38:33.318Z,76.88
2023-01-29T21:41:02.576Z,77.54
2023-01-29T21:43:29.555Z,77.57
2023-01-29T21:45:58.350Z,77.51
2023-01-29T21:48:26.479Z,77.93
2023-01-29T21:50:54.758Z,78.09
2023-01-29T21:53:24.055Z,77.80
2023-01-29T21:55:52.078Z,77.49
2023-01-29T21:58:21.004Z,77.91
2023-01-29T22:00:49.730Z,78.55
2023-01-29T22:03:18.000Z,78.94
2023-01-29T22:05:46.406Z,79.15
2023-01-29T22:08:14.950Z,79.75
2023-01-29T22:10:44.321Z,79.82
2023-01-29T22:13:12.471Z,80.24
2023-01-29T22:15:40.501Z,79.81
2023-01-29T22:18:08.438Z,79.76
2023-01-29T22:20:36.809Z,79.37
2023-01-29T22:23:04.840Z,79.63
2023-01-29T22:25:33.447Z,79.91
2023-01-29T22:28:03.961Z,80.36
2023-01-29T22:30:32.044Z,79.90
2023-01-29T22:33:00.010Z,79.69
2023-01-29T22:35:28.007Z,79.62
2023-01-29T22:37:55.947Z,78.52
2023-01-29T22:40:24.101Z,78.33
2023-01-29T22:42:52.098Z,77.83
2023-01-29T22:45:21.528Z,77.27
2023-01-29T22:47:49.551Z,77.54
2023-01-29T22:50:18.119Z,78.43
2023-01-29T22:52:53.569Z,78.24
2023-01-29T22:55:21.913Z,78.22
2023-01-29T22:57:50.375Z,78.65
2023-01-29T23:00:19.657Z,78.09
2023-01-29T23:02:49.285Z,79.45
2023-01-29T23:05:17.968Z,78.73
2023-01-29T23:07:45.995Z,78.48
2023-01-29T23:10:16.125Z,78.53
2023-01-29T23:12:44.283Z,79.30
2023-01-29T23:15:12.429Z,77.81
2023-01-29T23:17:40.786Z,78.45
2023-01-29T23:20:11.902Z,79.02
2023-01-29T23:22:39.794Z,79.45
2023-01-29T23:25:08.497Z,79.33
2023-01-29T23:27:35.758Z,79.20
2023-01-29T23:30:03.734Z,79.33
2023-01-29T23:32:32.061Z,79.21
2023-01-29T23:35:00.013Z,79.41
2023-01-29T23:37:29.401Z,79.28
2023-01-29T23:39:57.302Z,79.29
2023-01-29T23:42:25.234Z,79.54
2023-01-29T23:44:53.106Z,79.61
2023-01-29T23:47:21.035Z,80.05
2023-01-29T23:49:49.089Z,80.11
2023-01-29T23:52:17.005Z,80.03
2023-01-29T23:54:46.384Z,80.58
2023-01-29T23:57:14.442Z,80.52
2023-01-29T23:59:42.468Z,79.50
